Ford Heights, Illinois
Current Conditions -  °F | °C
As of 4:35 AM on Saturday 22 Nov 2014 (Local Time) from KIGQ Reporting Station
Haze Haze  
Wind Chill: 26°   Ceiling: 700
Heat Index: 33°   Visibility: 5mi
Dew Point: 32°   Wind: 9mph
Humidity: 95%   Direction: 200°SSW
Pressure: 30.11"   Gusts: NA
Location:  41.5054°N, 87.5907°W
Report Text: KIGQ 221035Z AUTO 20008KT 5SM BR BKN007 OVC011 01/00 A3011 RMK AO2 T00070000
Loading
Personal Weather Stations






























Interactive Weather Map New forecast layout! Learn more

10-Day Weather Forecast

Advertisements
Track Severe Weather on mobile